Time;durP1;ratioP1;P1;durP2;ratioP2;P2;SDS_P1;SDS_P2;PMS_P1;PMS_P2;Temp;Humidity;BMP_temperature;BMP_pressure;BME280_temperature;BME280_humidity;BME280_pressure;Samples;Min_cycle;Max_cycle;Signal;HPM_P1;HPM_P2
2021/03/25 00:00:32;;;;;;;5.00;3.37;;;;;;;;;;5083665;28;20222;-79
2021/03/25 00:03:01;;;;;;;5.77;3.50;;;;;;;;;;5091468;28;20234;-79
2021/03/25 00:05:32;;;;;;;6.57;3.70;;;;;;;;;;5083338;28;20225;-79
2021/03/25 00:08:00;;;;;;;5.57;4.10;;;;;;;;;;5066166;28;20230;-77
2021/03/25 00:10:31;;;;;;;6.67;4.07;;;;;;;;;;5045683;28;20226;-77
2021/03/25 00:12:59;;;;;;;5.47;3.73;;;;;;;;;;5109098;27;20221;-79
2021/03/25 00:15:28;;;;;;;5.67;3.77;;;;;;;;;;5094094;28;20221;-78
2021/03/25 00:17:56;;;;;;;8.63;4.17;;;;;;;;;;5090409;28;20225;-77
2021/03/25 00:20:25;;;;;;;5.33;3.43;;;;;;;;;;5072572;28;20225;-77
2021/03/25 00:22:53;;;;;;;5.03;4.00;;;;;;;;;;5089809;28;20227;-77
2021/03/25 00:25:24;;;;;;;6.20;3.80;;;;;;;;;;5072146;28;20225;-78
2021/03/25 00:27:51;;;;;;;5.23;3.87;;;;;;;;;;5054306;28;20225;-76
2021/03/25 00:30:21;;;;;;;4.93;3.43;;;;;;;;;;5089568;28;20221;-78
2021/03/25 00:32:49;;;;;;;4.30;3.30;;;;;;;;;;5069516;28;20222;-77
2021/03/25 00:35:18;;;;;;;5.77;3.50;;;;;;;;;;5108923;28;20236;-77
2021/03/25 00:37:46;;;;;;;4.67;3.03;;;;;;;;;;5104777;28;20214;-76
2021/03/25 00:40:15;;;;;;;5.77;3.77;;;;;;;;;;5083931;28;20236;-78
2021/03/25 00:42:43;;;;;;;3.60;3.30;;;;;;;;;;5077641;28;20233;-76
2021/03/25 00:45:14;;;;;;;4.30;3.13;;;;;;;;;;5092663;27;20702;-77
2021/03/25 00:47:42;;;;;;;7.00;3.60;;;;;;;;;;5093929;28;20216;-77
2021/03/25 00:50:17;;;;;;;7.70;3.47;;;;;;;;;;5107465;28;20225;-77
2021/03/25 00:52:45;;;;;;;5.63;2.90;;;;;;;;;;5127313;27;20217;-78
2021/03/25 00:55:14;;;;;;;5.13;3.17;;;;;;;;;;5088867;28;20238;-77
2021/03/25 00:57:42;;;;;;;5.70;3.63;;;;;;;;;;5122434;28;20511;-76
2021/03/25 01:00:12;;;;;;;5.33;3.60;;;;;;;;;;5064860;28;20221;-78
2021/03/25 01:02:40;;;;;;;4.67;3.67;;;;;;;;;;5070183;28;20233;-78
2021/03/25 01:05:09;;;;;;;7.60;3.90;;;;;;;;;;5086498;28;20221;-77
2021/03/25 01:07:37;;;;;;;6.23;3.67;;;;;;;;;;5062179;28;20235;-78
2021/03/25 01:10:11;;;;;;;4.13;3.50;;;;;;;;;;5098242;28;20225;-77
2021/03/25 01:12:40;;;;;;;6.03;3.63;;;;;;;;;;5085610;28;20226;-78
2021/03/25 01:15:09;;;;;;;8.67;3.63;;;;;;;;;;5107990;28;20728;-77
2021/03/25 01:17:40;;;;;;;5.97;4.17;;;;;;;;;;5082517;28;20226;-79
2021/03/25 01:20:14;;;;;;;5.27;3.77;;;;;;;;;;5085274;28;20229;-76
2021/03/25 01:22:42;;;;;;;6.37;3.50;;;;;;;;;;5088455;28;20225;-78
2021/03/25 01:25:11;;;;;;;5.70;3.53;;;;;;;;;;5050366;28;20597;-77
2021/03/25 01:27:39;;;;;;;7.27;4.00;;;;;;;;;;5050370;28;20238;-78
2021/03/25 01:30:08;;;;;;;5.13;3.70;;;;;;;;;;5041522;28;20218;-76
2021/03/25 01:32:36;;;;;;;5.53;4.03;;;;;;;;;;5069664;28;20219;-78
2021/03/25 01:35:06;;;;;;;5.50;4.20;;;;;;;;;;5058772;28;20230;-77
2021/03/25 01:37:34;;;;;;;7.37;4.27;;;;;;;;;;5065346;28;20238;-79
2021/03/25 01:40:13;;;;;;;6.67;4.00;;;;;;;;;;5047525;28;20707;-77
2021/03/25 01:42:43;;;;;;;7.77;4.20;;;;;;;;;;5037448;28;20459;-78
2021/03/25 01:45:35;;;;;;;5.80;4.47;;;;;;;;;;5048529;28;20222;-77
2021/03/25 01:48:06;;;;;;;5.07;3.77;;;;;;;;;;5062162;28;20249;-76
2021/03/25 01:50:35;;;;;;;5.00;3.70;;;;;;;;;;5076237;28;20232;-77
2021/03/25 01:53:18;;;;;;;6.60;4.13;;;;;;;;;;5068844;28;20225;-77
2021/03/25 01:55:49;;;;;;;5.80;4.30;;;;;;;;;;5091008;28;20236;-78
2021/03/25 01:58:38;;;;;;;8.13;4.40;;;;;;;;;;5074254;28;20255;-76
2021/03/25 02:01:09;;;;;;;6.67;4.03;;;;;;;;;;5087957;28;20222;-77
2021/03/25 02:04:13;;;;;;;6.87;4.70;;;;;;;;;;5090770;28;20234;-78
2021/03/25 02:06:44;;;;;;;6.93;4.40;;;;;;;;;;5074716;28;20244;-79
2021/03/25 02:09:18;;;;;;;6.40;4.83;;;;;;;;;;5084158;28;20583;-79
2021/03/25 02:12:03;;;;;;;7.50;4.90;;;;;;;;;;5049060;28;20222;-78
2021/03/25 02:14:41;;;;;;;6.10;4.60;;;;;;;;;;5052177;28;20230;-77
2021/03/25 02:17:12;;;;;;;7.63;4.97;;;;;;;;;;5070178;28;20237;-77
2021/03/25 02:20:04;;;;;;;9.07;4.50;;;;;;;;;;5066069;28;20237;-77
2021/03/25 02:22:53;;;;;;;6.80;4.77;;;;;;;;;;5049693;28;20700;-79
2021/03/25 02:25:24;;;;;;;6.30;4.17;;;;;;;;;;5053504;28;20236;-78
2021/03/25 02:28:31;;;;;;;7.43;4.50;;;;;;;;;;5078222;28;20222;-77
2021/03/25 02:31:06;;;;;;;6.47;4.70;;;;;;;;;;5047043;28;20229;-77
2021/03/25 02:33:34;;;;;;;6.50;4.47;;;;;;;;;;5069076;28;20626;-78
2021/03/25 02:36:12;;;;;;;7.27;4.60;;;;;;;;;;5072277;28;20226;-77
2021/03/25 02:38:42;;;;;;;8.27;4.80;;;;;;;;;;5076251;28;20588;-78
2021/03/25 02:41:16;;;;;;;8.70;5.10;;;;;;;;;;5064292;28;20241;-78
2021/03/25 02:43:47;;;;;;;7.00;5.13;;;;;;;;;;5086817;28;20248;-79
2021/03/25 02:46:20;;;;;;;5.67;4.53;;;;;;;;;;5071127;28;20249;-76
2021/03/25 02:48:56;;;;;;;8.50;5.20;;;;;;;;;;5070123;28;20590;-77
2021/03/25 02:51:28;;;;;;;8.60;5.67;;;;;;;;;;5043753;28;20630;-78
2021/03/25 02:53:58;;;;;;;8.10;5.07;;;;;;;;;;5085370;28;20606;-78
2021/03/25 02:56:30;;;;;;;6.67;4.87;;;;;;;;;;5048872;28;20227;-77
2021/03/25 02:59:01;;;;;;;10.27;4.83;;;;;;;;;;5086216;28;20604;-79
2021/03/25 03:01:34;;;;;;;7.73;5.70;;;;;;;;;;5070137;28;20250;-77
2021/03/25 03:04:18;;;;;;;8.60;5.07;;;;;;;;;;5084379;28;20230;-76
2021/03/25 03:06:49;;;;;;;7.47;5.17;;;;;;;;;;5070351;28;20226;-77
2021/03/25 03:09:22;;;;;;;8.67;5.33;;;;;;;;;;5065446;28;20226;-77
2021/03/25 03:11:56;;;;;;;8.10;5.70;;;;;;;;;;5086256;28;20229;-77
2021/03/25 03:14:30;;;;;;;7.67;5.03;;;;;;;;;;5071652;28;20236;-76
2021/03/25 03:17:04;;;;;;;7.90;6.00;;;;;;;;;;5057726;28;20605;-76
2021/03/25 03:19:35;;;;;;;8.97;5.13;;;;;;;;;;5057983;28;20228;-78
2021/03/25 03:22:09;;;;;;;6.73;5.13;;;;;;;;;;5053746;28;20225;-76
2021/03/25 03:24:52;;;;;;;9.13;6.30;;;;;;;;;;5109934;28;20240;-76
2021/03/25 03:27:37;;;;;;;8.33;6.40;;;;;;;;;;5076581;28;20237;-78
2021/03/25 03:30:08;;;;;;;10.43;6.37;;;;;;;;;;5082830;28;20237;-77
2021/03/25 03:32:46;;;;;;;8.33;6.20;;;;;;;;;;5055749;28;20232;-77
2021/03/25 03:35:19;;;;;;;8.83;5.97;;;;;;;;;;5054931;28;20228;-77
2021/03/25 03:37:49;;;;;;;9.03;6.00;;;;;;;;;;5072650;28;20233;-78
2021/03/25 03:40:26;;;;;;;10.90;5.90;;;;;;;;;;5082566;28;20233;-76
2021/03/25 03:43:00;;;;;;;10.80;6.33;;;;;;;;;;5099060;28;20228;-77
2021/03/25 03:45:30;;;;;;;10.53;6.40;;;;;;;;;;5080154;28;20233;-77
2021/03/25 03:48:15;;;;;;;10.00;6.73;;;;;;;;;;5080301;28;20315;-77
2021/03/25 03:50:47;;;;;;;9.57;6.77;;;;;;;;;;5092094;28;20228;-79
2021/03/25 03:53:16;;;;;;;8.23;6.80;;;;;;;;;;5088582;28;20244;-79
2021/03/25 03:55:46;;;;;;;10.93;6.63;;;;;;;;;;5088522;28;20232;-77
2021/03/25 03:58:20;;;;;;;9.93;6.90;;;;;;;;;;5093094;28;20244;-78
2021/03/25 04:00:52;;;;;;;11.03;6.93;;;;;;;;;;5086208;28;20217;-77
2021/03/25 04:03:25;;;;;;;10.23;6.33;;;;;;;;;;5085273;28;20602;-77
2021/03/25 04:06:29;;;;;;;8.30;6.10;;;;;;;;;;5070639;28;20409;-77
2021/03/25 04:09:15;;;;;;;10.23;6.03;;;;;;;;;;5084787;28;20228;-79
2021/03/25 04:11:52;;;;;;;9.80;7.10;;;;;;;;;;5086431;28;20232;-78
2021/03/25 04:14:25;;;;;;;11.17;6.63;;;;;;;;;;5072615;28;20233;-77
2021/03/25 04:17:09;;;;;;;9.10;6.43;;;;;;;;;;5076128;28;20229;-77
2021/03/25 04:19:44;;;;;;;9.70;6.37;;;;;;;;;;5078362;28;20221;-79
2021/03/25 04:22:22;;;;;;;7.67;5.90;;;;;;;;;;5086802;28;20223;-77
2021/03/25 04:24:54;;;;;;;7.93;5.80;;;;;;;;;;5095932;28;20314;-78
2021/03/25 04:27:23;;;;;;;8.53;6.00;;;;;;;;;;5089708;28;20253;-77
2021/03/25 04:29:57;;;;;;;8.90;6.07;;;;;;;;;;5058825;28;20709;-77
2021/03/25 04:32:25;;;;;;;9.67;6.20;;;;;;;;;;5089089;28;20230;-78
2021/03/25 04:34:54;;;;;;;8.23;6.07;;;;;;;;;;5069949;28;20221;-77
2021/03/25 04:37:23;;;;;;;8.33;5.60;;;;;;;;;;5072712;28;20220;-77
2021/03/25 04:39:51;;;;;;;10.43;5.73;;;;;;;;;;5069863;28;20233;-77
2021/03/25 04:42:19;;;;;;;8.30;5.80;;;;;;;;;;5095971;28;20231;-79
2021/03/25 04:44:48;;;;;;;13.57;6.10;;;;;;;;;;5101604;28;20229;-77
2021/03/25 04:47:18;;;;;;;10.30;7.43;;;;;;;;;;5087816;28;20241;-76
2021/03/25 04:49:50;;;;;;;11.20;6.33;;;;;;;;;;5085719;28;20236;-77
2021/03/25 04:52:21;;;;;;;9.27;5.77;;;;;;;;;;5099563;28;20221;-77
2021/03/25 04:54:49;;;;;;;9.87;6.30;;;;;;;;;;5099532;28;20229;-77
2021/03/25 04:57:26;;;;;;;9.23;6.37;;;;;;;;;;5072418;28;21478;-76
2021/03/25 04:59:56;;;;;;;9.10;6.17;;;;;;;;;;5080432;28;20231;-77
2021/03/25 05:02:24;;;;;;;10.17;6.20;;;;;;;;;;5089438;28;20638;-76
2021/03/25 05:04:54;;;;;;;11.37;6.73;;;;;;;;;;5090328;28;20241;-76
2021/03/25 05:07:27;;;;;;;10.17;6.00;;;;;;;;;;5069429;28;20229;-76
2021/03/25 05:09:56;;;;;;;8.23;5.47;;;;;;;;;;5086454;28;20729;-77
2021/03/25 05:12:25;;;;;;;8.60;6.20;;;;;;;;;;5083008;28;20221;-77
2021/03/25 05:14:56;;;;;;;10.10;5.67;;;;;;;;;;5091794;28;20223;-77
2021/03/25 05:17:32;;;;;;;10.20;6.60;;;;;;;;;;5086104;28;20706;-76
2021/03/25 05:20:08;;;;;;;9.50;6.60;;;;;;;;;;5077655;28;20219;-77
2021/03/25 05:22:40;;;;;;;8.73;6.23;;;;;;;;;;5069287;28;20230;-77
2021/03/25 05:25:11;;;;;;;11.90;6.40;;;;;;;;;;5086487;28;20587;-77
2021/03/25 05:27:43;;;;;;;10.00;5.87;;;;;;;;;;5066883;28;20669;-78
2021/03/25 05:30:15;;;;;;;9.70;5.87;;;;;;;;;;5085444;28;20247;-76
2021/03/25 05:32:45;;;;;;;9.03;5.93;;;;;;;;;;5068483;28;20308;-77
2021/03/25 05:35:15;;;;;;;10.00;6.43;;;;;;;;;;5090936;28;20220;-77
2021/03/25 05:37:44;;;;;;;10.03;6.27;;;;;;;;;;5068670;28;20223;-77
2021/03/25 05:40:18;;;;;;;12.17;7.10;;;;;;;;;;5069337;28;20230;-78
2021/03/25 05:42:52;;;;;;;8.33;6.10;;;;;;;;;;5088516;28;20251;-76
2021/03/25 05:45:27;;;;;;;11.97;6.27;;;;;;;;;;5071171;28;20232;-76
2021/03/25 05:48:47;;;;;;;9.83;6.30;;;;;;;;;;5092763;28;20596;-77
2021/03/25 05:51:20;;;;;;;11.33;6.77;;;;;;;;;;5026387;28;20268;-77
2021/03/25 05:54:00;;;;;;;7.63;5.73;;;;;;;;;;5054842;28;20229;-77
2021/03/25 05:56:42;;;;;;;8.97;6.17;;;;;;;;;;5076765;28;20230;-77
2021/03/25 05:59:13;;;;;;;10.40;6.17;;;;;;;;;;5097588;28;20750;-77
2021/03/25 06:01:52;;;;;;;7.77;5.63;;;;;;;;;;5071109;28;20698;-78
2021/03/25 06:04:22;;;;;;;7.53;5.03;;;;;;;;;;5067026;28;20347;-78
2021/03/25 06:07:18;;;;;;;8.13;5.30;;;;;;;;;;5055718;28;20240;-78
2021/03/25 06:09:55;;;;;;;7.23;5.10;;;;;;;;;;5050040;28;20231;-77
2021/03/25 06:12:33;;;;;;;9.13;6.00;;;;;;;;;;5086805;28;20232;-77
2021/03/25 06:15:12;;;;;;;6.17;4.53;;;;;;;;;;5072734;28;20729;-77
2021/03/25 06:17:48;;;;;;;6.87;5.00;;;;;;;;;;5100793;28;20229;-76
2021/03/25 06:20:24;;;;;;;7.00;4.60;;;;;;;;;;5070028;28;20240;-77
2021/03/25 06:23:02;;;;;;;10.23;4.57;;;;;;;;;;5069475;28;20217;-77
2021/03/25 06:25:46;;;;;;;8.43;5.30;;;;;;;;;;5050390;28;20221;-77
2021/03/25 06:28:21;;;;;;;7.57;5.13;;;;;;;;;;5052245;28;20255;-77
2021/03/25 06:31:15;;;;;;;10.67;5.00;;;;;;;;;;5069282;28;20698;-77
2021/03/25 06:33:58;;;;;;;6.77;4.77;;;;;;;;;;5020874;28;20229;-78
2021/03/25 06:36:40;;;;;;;8.47;5.00;;;;;;;;;;5046200;28;20222;-78
2021/03/25 06:39:14;;;;;;;8.67;5.20;;;;;;;;;;5078205;28;20237;-77
2021/03/25 06:41:47;;;;;;;7.60;4.70;;;;;;;;;;5082048;28;20236;-77
2021/03/25 06:44:17;;;;;;;8.87;5.43;;;;;;;;;;5092665;27;20617;-77
2021/03/25 06:46:46;;;;;;;8.73;5.53;;;;;;;;;;5070651;28;20230;-77
2021/03/25 06:49:20;;;;;;;13.57;5.23;;;;;;;;;;5053147;28;20225;-77
2021/03/25 06:51:47;;;;;;;9.73;5.23;;;;;;;;;;5053566;28;20231;-77
2021/03/25 06:54:18;;;;;;;8.40;5.23;;;;;;;;;;5068739;28;20233;-76
2021/03/25 06:56:49;;;;;;;7.30;5.00;;;;;;;;;;5052703;28;20218;-77
2021/03/25 06:59:19;;;;;;;6.50;5.10;;;;;;;;;;5050595;28;20523;-79
2021/03/25 07:01:48;;;;;;;9.50;5.00;;;;;;;;;;5070071;28;20238;-77
2021/03/25 07:04:21;;;;;;;7.37;5.50;;;;;;;;;;5082692;28;20244;-78
2021/03/25 07:06:49;;;;;;;9.30;4.40;;;;;;;;;;5054149;28;20218;-78
2021/03/25 07:09:17;;;;;;;8.67;4.60;;;;;;;;;;5059377;28;20226;-77
2021/03/25 07:11:46;;;;;;;12.63;5.93;;;;;;;;;;4840835;28;20839;-78
2021/03/25 07:14:20;;;;;;;7.23;5.00;;;;;;;;;;4817153;28;21324;-77
2021/03/25 07:16:54;;;;;;;8.60;4.90;;;;;;;;;;4828805;28;24960;-79
2021/03/25 07:19:22;;;;;;;6.77;4.70;;;;;;;;;;4845435;28;20225;-77
2021/03/25 07:21:50;;;;;;;7.83;4.17;;;;;;;;;;4928627;28;20249;-78
2021/03/25 07:24:32;;;;;;;10.93;3.50;;;;;;;;;;4901956;28;20329;-77
2021/03/25 07:27:09;;;;;;;4.40;3.00;;;;;;;;;;4980940;28;20718;-78
2021/03/25 07:29:39;;;;;;;3.57;2.57;;;;;;;;;;4873865;28;20233;-78
2021/03/25 07:32:36;;;;;;;4.77;2.10;;;;;;;;;;4855931;28;20817;-77
2021/03/25 07:35:15;;;;;;;4.93;2.30;;;;;;;;;;4934332;28;21047;-80
2021/03/25 07:37:46;;;;;;;4.97;2.73;;;;;;;;;;4886203;28;20929;-80
2021/03/25 07:40:26;;;;;;;10.13;3.03;;;;;;;;;;4901876;28;20694;-77
2021/03/25 07:43:18;;;;;;;3.87;2.23;;;;;;;;;;4853391;28;20230;-77
2021/03/25 07:46:07;;;;;;;6.63;2.53;;;;;;;;;;4929147;28;20682;-77
2021/03/25 07:48:35;;;;;;;5.80;2.83;;;;;;;;;;4932867;27;20412;-78
2021/03/25 07:51:16;;;;;;;2.80;2.47;;;;;;;;;;4916494;27;20830;-79
2021/03/25 07:53:46;;;;;;;5.67;2.80;;;;;;;;;;4887267;28;20376;-77
2021/03/25 07:56:17;;;;;;;18.57;3.07;;;;;;;;;;4903959;28;21807;-77
2021/03/25 07:59:05;;;;;;;5.00;2.50;;;;;;;;;;4897572;28;20293;-77
2021/03/25 08:01:33;;;;;;;4.60;2.43;;;;;;;;;;4902860;28;22360;-79
2021/03/25 08:04:00;;;;;;;4.20;2.53;;;;;;;;;;4984075;28;20241;-79
2021/03/25 08:06:36;;;;;;;3.23;2.10;;;;;;;;;;4904418;28;20296;-80
2021/03/25 08:09:07;;;;;;;3.87;2.30;;;;;;;;;;4892824;28;25341;-78
2021/03/25 08:11:36;;;;;;;4.37;2.37;;;;;;;;;;4886768;28;21726;-79
2021/03/25 08:14:14;;;;;;;5.50;2.87;;;;;;;;;;4905531;28;20251;-77
2021/03/25 08:16:45;;;;;;;3.67;2.30;;;;;;;;;;4919647;28;20392;-82
2021/03/25 08:19:22;;;;;;;5.70;2.87;;;;;;;;;;4895918;28;21695;-78
2021/03/25 08:21:57;;;;;;;5.90;2.43;;;;;;;;;;4916752;28;20752;-78
2021/03/25 08:24:46;;;;;;;3.53;2.43;;;;;;;;;;4893899;28;20259;-78
2021/03/25 08:27:23;;;;;;;4.07;2.70;;;;;;;;;;4887030;28;20749;-80
2021/03/25 08:30:03;;;;;;;3.10;2.23;;;;;;;;;;4872742;28;20817;-78
2021/03/25 08:32:36;;;;;;;5.87;2.70;;;;;;;;;;4897328;28;20248;-78
2021/03/25 08:35:16;;;;;;;4.97;2.63;;;;;;;;;;4875039;28;20261;-79
2021/03/25 08:38:19;;;;;;;5.17;3.00;;;;;;;;;;4899855;28;25012;-78
2021/03/25 08:40:50;;;;;;;5.10;2.50;;;;;;;;;;4889585;28;20230;-79
2021/03/25 08:43:21;;;;;;;2.70;2.10;;;;;;;;;;4868171;28;25404;-79
2021/03/25 08:45:54;;;;;;;2.90;2.13;;;;;;;;;;4892343;28;20288;-79
2021/03/25 08:48:25;;;;;;;2.63;2.10;;;;;;;;;;4868691;28;20232;-79
2021/03/25 08:50:58;;;;;;;2.80;1.90;;;;;;;;;;4893788;28;20345;-75
2021/03/25 08:53:41;;;;;;;4.17;2.10;;;;;;;;;;4890615;28;23988;-78
2021/03/25 08:56:24;;;;;;;4.70;2.10;;;;;;;;;;4902312;28;20289;-77
2021/03/25 08:58:53;;;;;;;2.97;1.87;;;;;;;;;;4883692;28;20555;-78
2021/03/25 09:01:28;;;;;;;4.70;2.17;;;;;;;;;;4901561;28;21132;-79
2021/03/25 09:03:59;;;;;;;3.47;1.80;;;;;;;;;;4862759;28;20790;-77
2021/03/25 09:06:30;;;;;;;6.07;2.27;;;;;;;;;;4868857;28;20226;-78
2021/03/25 09:09:11;;;;;;;2.87;1.90;;;;;;;;;;4879333;27;21185;-79
2021/03/25 09:11:38;;;;;;;2.70;1.97;;;;;;;;;;4868495;28;20341;-79
2021/03/25 09:14:11;;;;;;;3.10;2.17;;;;;;;;;;4863209;28;20945;-77
2021/03/25 09:16:40;;;;;;;5.33;2.60;;;;;;;;;;4876220;28;20435;-78
2021/03/25 09:19:27;;;;;;;4.13;2.70;;;;;;;;;;4882238;28;20625;-79
2021/03/25 09:21:56;;;;;;;4.47;2.43;;;;;;;;;;4854717;28;20527;-79
2021/03/25 09:24:24;;;;;;;3.90;2.40;;;;;;;;;;4866547;28;20915;-83
2021/03/25 09:26:55;;;;;;;4.40;2.60;;;;;;;;;;4864310;28;20625;-82
2021/03/25 09:29:30;;;;;;;42.37;5.73;;;;;;;;;;4875254;28;21137;-79
2021/03/25 09:32:39;;;;;;;5.07;2.97;;;;;;;;;;4867762;28;20967;-78
2021/03/25 09:35:37;;;;;;;4.87;2.90;;;;;;;;;;4889441;28;20853;-79
2021/03/25 09:38:26;;;;;;;5.23;3.30;;;;;;;;;;4880643;28;21924;-79
2021/03/25 09:40:54;;;;;;;5.30;3.70;;;;;;;;;;4937576;28;20372;-78
2021/03/25 09:43:39;;;;;;;4.53;3.10;;;;;;;;;;4896115;28;20635;-80
2021/03/25 09:46:26;;;;;;;5.10;3.30;;;;;;;;;;4869618;28;21656;-80
2021/03/25 09:48:56;;;;;;;4.50;3.37;;;;;;;;;;4883282;28;20229;-81
2021/03/25 09:51:28;;;;;;;6.57;4.13;;;;;;;;;;4875630;28;20218;-81
2021/03/25 09:53:57;;;;;;;6.83;3.90;;;;;;;;;;4896424;28;20312;-79
2021/03/25 09:56:36;;;;;;;5.80;3.90;;;;;;;;;;4924417;28;20751;-79
2021/03/25 09:59:04;;;;;;;6.93;4.17;;;;;;;;;;4920859;28;21736;-79
2021/03/25 10:01:51;;;;;;;5.87;3.87;;;;;;;;;;4881001;28;20352;-80
2021/03/25 10:04:40;;;;;;;4.97;4.00;;;;;;;;;;4914754;28;20260;-83
2021/03/25 10:07:36;;;;;;;10.13;4.50;;;;;;;;;;4899003;28;21612;-80
2021/03/25 10:10:36;;;;;;;9.43;4.33;;;;;;;;;;4887511;28;20261;-79
2021/03/25 10:13:35;;;;;;;5.37;4.13;;;;;;;;;;4868554;28;20658;-78
2021/03/25 10:16:06;;;;;;;7.97;4.70;;;;;;;;;;4890872;28;20226;-81
2021/03/25 10:18:50;;;;;;;12.00;4.80;;;;;;;;;;4872239;28;21125;-82
2021/03/25 10:21:21;;;;;;;8.00;5.50;;;;;;;;;;4852366;28;20969;-79
2021/03/25 10:23:59;;;;;;;9.13;4.90;;;;;;;;;;4859398;28;21973;-80
2021/03/25 10:26:33;;;;;;;10.33;4.80;;;;;;;;;;4875467;28;21123;-81
2021/03/25 10:29:05;;;;;;;8.70;5.47;;;;;;;;;;4858713;28;20993;-78
2021/03/25 10:31:42;;;;;;;7.63;4.90;;;;;;;;;;4957257;28;20589;-81
2021/03/25 10:34:19;;;;;;;10.00;5.37;;;;;;;;;;4900162;28;20399;-78
2021/03/25 10:36:49;;;;;;;9.87;5.30;;;;;;;;;;4889781;27;20786;-81
2021/03/25 10:39:25;;;;;;;7.83;5.40;;;;;;;;;;4891683;28;20802;-77
2021/03/25 10:41:53;;;;;;;8.70;6.00;;;;;;;;;;4921163;27;20224;-79
2021/03/25 10:44:25;;;;;;;9.33;5.73;;;;;;;;;;4919562;28;20963;-76
2021/03/25 10:46:54;;;;;;;8.05;5.45;;;;;;;;;;4871178;27;20230;-76
2021/03/25 10:49:26;;;;;;;7.65;5.80;;;;;;;;;;4891671;28;20355;-79
2021/03/25 10:51:54;;;;;;;8.98;6.03;;;;;;;;;;4869159;28;20223;-76
2021/03/25 10:54:29;;;;;;;8.05;6.13;;;;;;;;;;4947032;28;20731;-79
2021/03/25 10:57:07;;;;;;;8.63;5.88;;;;;;;;;;4889076;28;20264;-78
2021/03/25 10:59:35;;;;;;;7.88;6.32;;;;;;;;;;4894232;28;20925;-77
2021/03/25 11:02:03;;;;;;;7.68;6.22;;;;;;;;;;4901726;28;21870;-80
2021/03/25 11:04:34;;;;;;;7.93;6.15;;;;;;;;;;4984754;28;20233;-77
2021/03/25 11:07:10;;;;;;;9.70;6.82;;;;;;;;;;5086494;28;20230;-79
2021/03/25 11:09:38;;;;;;;10.35;6.82;;;;;;;;;;5061904;28;20214;-79
2021/03/25 11:12:17;;;;;;;9.50;6.82;;;;;;;;;;5080814;28;20226;-79
2021/03/25 11:14:50;;;;;;;8.55;6.43;;;;;;;;;;5067375;28;20235;-78
2021/03/25 11:17:21;;;;;;;9.63;7.18;;;;;;;;;;5078975;28;20617;-79
2021/03/25 11:19:52;;;;;;;10.57;6.70;;;;;;;;;;5084604;28;20229;-81
2021/03/25 11:22:20;;;;;;;9.52;6.93;;;;;;;;;;5090307;28;20229;-77
2021/03/25 11:24:50;;;;;;;8.30;6.53;;;;;;;;;;5071736;28;20226;-79
2021/03/25 11:27:20;;;;;;;9.20;7.05;;;;;;;;;;5094831;28;20230;-78
2021/03/25 11:29:49;;;;;;;11.40;7.43;;;;;;;;;;5086910;28;20214;-79
2021/03/25 11:32:22;;;;;;;10.60;7.53;;;;;;;;;;5095084;28;20229;-77
2021/03/25 11:34:52;;;;;;;10.93;7.55;;;;;;;;;;5064572;28;20218;-79
2021/03/25 11:37:25;;;;;;;8.20;6.72;;;;;;;;;;5103634;28;20237;-79
2021/03/25 11:40:03;;;;;;;10.60;7.53;;;;;;;;;;5070974;28;20245;-77
2021/03/25 11:42:34;;;;;;;9.57;7.43;;;;;;;;;;5069557;28;20233;-80
2021/03/25 11:45:03;;;;;;;9.85;7.80;;;;;;;;;;5086823;28;20230;-78
2021/03/25 11:47:42;;;;;;;9.70;7.38;;;;;;;;;;5078940;28;20233;-78
2021/03/25 11:50:30;;;;;;;9.98;7.57;;;;;;;;;;5080097;28;20222;-77
2021/03/25 11:53:01;;;;;;;9.55;7.03;;;;;;;;;;5078731;28;20218;-77
2021/03/25 11:55:32;;;;;;;9.20;7.40;;;;;;;;;;5111065;27;20236;-77
2021/03/25 11:58:07;;;;;;;9.10;7.13;;;;;;;;;;5091966;28;20244;-79
2021/03/25 12:00:35;;;;;;;9.30;7.30;;;;;;;;;;5061050;28;20241;-77
2021/03/25 12:03:15;;;;;;;9.43;6.78;;;;;;;;;;5097364;28;20244;-77
2021/03/25 12:05:45;;;;;;;9.32;6.63;;;;;;;;;;5070785;28;20348;-78
2021/03/25 12:08:23;;;;;;;9.05;7.05;;;;;;;;;;5100133;28;20232;-77
2021/03/25 12:11:09;;;;;;;11.88;7.53;;;;;;;;;;5079413;27;20222;-77
2021/03/25 12:13:37;;;;;;;9.90;6.88;;;;;;;;;;5072866;28;20621;-77
2021/03/25 12:16:07;;;;;;;8.68;6.20;;;;;;;;;;5098533;28;20225;-77
2021/03/25 12:18:37;;;;;;;8.07;6.47;;;;;;;;;;5097562;28;20236;-78
2021/03/25 12:21:07;;;;;;;6.82;6.10;;;;;;;;;;5084897;28;20229;-78
2021/03/25 12:23:37;;;;;;;7.60;5.63;;;;;;;;;;5103860;28;20225;-78
2021/03/25 12:26:12;;;;;;;7.68;5.80;;;;;;;;;;5093692;28;20230;-78
2021/03/25 12:28:40;;;;;;;7.28;5.78;;;;;;;;;;5076118;28;20234;-79
2021/03/25 12:31:07;;;;;;;6.65;5.50;;;;;;;;;;5092076;28;20218;-78
2021/03/25 12:33:37;;;;;;;6.00;5.25;;;;;;;;;;5088781;28;20244;-77
2021/03/25 12:36:07;;;;;;;6.10;5.50;;;;;;;;;;5073760;28;20226;-77
2021/03/25 12:38:36;;;;;;;6.70;5.45;;;;;;;;;;5114024;27;20610;-77
2021/03/25 12:41:28;;;;;;;6.53;5.43;;;;;;;;;;5071677;28;20226;-77
2021/03/25 12:43:56;;;;;;;6.85;5.40;;;;;;;;;;5066955;28;20226;-78
2021/03/25 12:46:23;;;;;;;6.60;5.88;;;;;;;;;;5075460;28;20614;-77
2021/03/25 12:48:51;;;;;;;7.13;6.05;;;;;;;;;;5079008;28;20633;-78
2021/03/25 12:51:19;;;;;;;7.03;5.97;;;;;;;;;;5077248;28;20226;-77
2021/03/25 12:53:47;;;;;;;8.57;6.07;;;;;;;;;;5076974;28;20239;-77
2021/03/25 12:56:16;;;;;;;8.38;6.25;;;;;;;;;;5074360;28;20240;-78
2021/03/25 12:58:56;;;;;;;7.20;5.95;;;;;;;;;;5075770;28;20229;-79
2021/03/25 13:01:26;;;;;;;7.30;5.90;;;;;;;;;;5105269;28;20238;-78
2021/03/25 13:03:54;;;;;;;8.07;5.57;;;;;;;;;;5083425;28;20229;-76
2021/03/25 13:06:23;;;;;;;7.97;6.15;;;;;;;;;;5102302;28;20245;-78
2021/03/25 13:08:51;;;;;;;6.85;5.30;;;;;;;;;;5065139;28;20226;-78
2021/03/25 13:11:21;;;;;;;7.18;5.45;;;;;;;;;;5073121;28;20226;-78
2021/03/25 13:13:49;;;;;;;6.43;5.22;;;;;;;;;;5103132;28;20225;-78
2021/03/25 13:16:18;;;;;;;8.00;5.07;;;;;;;;;;5088019;28;20234;-79
2021/03/25 13:18:46;;;;;;;4.72;4.15;;;;;;;;;;5099102;28;20237;-79
2021/03/25 13:21:15;;;;;;;6.57;4.88;;;;;;;;;;5088172;28;20245;-79
2021/03/25 13:23:43;;;;;;;4.50;4.03;;;;;;;;;;5071423;28;20229;-78
2021/03/25 13:26:11;;;;;;;5.45;4.30;;;;;;;;;;5067999;28;20230;-78
2021/03/25 13:28:39;;;;;;;5.07;4.57;;;;;;;;;;5059137;28;20230;-77
2021/03/25 13:31:08;;;;;;;6.50;4.85;;;;;;;;;;5058521;28;20231;-79
2021/03/25 13:33:37;;;;;;;6.20;5.20;;;;;;;;;;5060888;28;20229;-78
2021/03/25 13:36:06;;;;;;;5.75;4.20;;;;;;;;;;5084085;28;20245;-78
2021/03/25 13:38:33;;;;;;;6.82;4.90;;;;;;;;;;5072711;28;20722;-78
2021/03/25 13:41:02;;;;;;;5.75;4.63;;;;;;;;;;5061431;28;20296;-79
2021/03/25 13:43:35;;;;;;;7.78;4.78;;;;;;;;;;5084630;28;20225;-78
2021/03/25 13:46:04;;;;;;;5.68;5.00;;;;;;;;;;5075032;28;20237;-78
2021/03/25 13:48:33;;;;;;;8.18;5.32;;;;;;;;;;5083665;28;20218;-79
2021/03/25 13:51:05;;;;;;;5.47;4.93;;;;;;;;;;5081530;28;20231;-79
2021/03/25 13:53:33;;;;;;;8.15;5.43;;;;;;;;;;5099694;28;20236;-77
2021/03/25 13:56:01;;;;;;;6.18;5.18;;;;;;;;;;5064082;28;20317;-77
2021/03/25 13:58:29;;;;;;;6.60;6.00;;;;;;;;;;5084261;28;20227;-77
2021/03/25 14:00:57;;;;;;;6.88;6.18;;;;;;;;;;5095439;28;20627;-78
2021/03/25 14:03:25;;;;;;;6.10;5.50;;;;;;;;;;5079669;28;20226;-77
2021/03/25 14:05:53;;;;;;;7.18;6.00;;;;;;;;;;5050144;28;20237;-79
2021/03/25 14:08:22;;;;;;;6.20;5.60;;;;;;;;;;5076993;28;20241;-77
2021/03/25 14:10:50;;;;;;;6.22;5.43;;;;;;;;;;5079197;28;20233;-77
2021/03/25 14:13:19;;;;;;;6.22;5.20;;;;;;;;;;5098184;28;20226;-79
2021/03/25 14:15:48;;;;;;;8.32;5.45;;;;;;;;;;5084174;28;20233;-79
2021/03/25 14:18:17;;;;;;;6.55;5.20;;;;;;;;;;5099586;28;20237;-78
2021/03/25 14:20:47;;;;;;;6.68;4.63;;;;;;;;;;5061688;28;20237;-77
2021/03/25 14:23:17;;;;;;;5.97;5.25;;;;;;;;;;5091870;28;20210;-80
2021/03/25 14:25:48;;;;;;;10.13;5.50;;;;;;;;;;5093746;28;20368;-77
2021/03/25 14:28:18;;;;;;;7.72;5.05;;;;;;;;;;5080542;28;20218;-77
2021/03/25 14:30:46;;;;;;;5.25;4.43;;;;;;;;;;5104447;28;20229;-78
2021/03/25 14:33:15;;;;;;;6.20;4.65;;;;;;;;;;5071649;28;20232;-77
2021/03/25 14:35:43;;;;;;;6.28;4.72;;;;;;;;;;5093823;28;20234;-79
2021/03/25 14:38:12;;;;;;;5.97;4.53;;;;;;;;;;5056004;28;20218;-77
2021/03/25 14:40:42;;;;;;;5.70;4.88;;;;;;;;;;5052393;28;20253;-79
2021/03/25 14:43:12;;;;;;;7.25;5.10;;;;;;;;;;5081342;28;20234;-77
2021/03/25 14:45:40;;;;;;;5.10;4.60;;;;;;;;;;5072213;28;20711;-79
2021/03/25 14:48:09;;;;;;;6.32;4.97;;;;;;;;;;5076554;28;20233;-77
2021/03/25 14:50:38;;;;;;;5.35;4.85;;;;;;;;;;5113680;28;20241;-77
2021/03/25 14:53:07;;;;;;;8.63;5.28;;;;;;;;;;5078508;28;20225;-77
2021/03/25 14:55:35;;;;;;;5.50;4.65;;;;;;;;;;5076219;28;20226;-78
2021/03/25 14:58:03;;;;;;;7.60;5.38;;;;;;;;;;5057098;28;20218;-77
2021/03/25 15:00:41;;;;;;;6.65;4.78;;;;;;;;;;5073346;28;20237;-79
2021/03/25 15:03:11;;;;;;;6.63;4.35;;;;;;;;;;5089778;28;20236;-78
2021/03/25 15:05:40;;;;;;;5.45;4.65;;;;;;;;;;5061056;28;20225;-78
2021/03/25 15:08:08;;;;;;;6.43;4.80;;;;;;;;;;5092082;28;20234;-76
2021/03/25 15:10:38;;;;;;;6.65;4.60;;;;;;;;;;5076628;28;20230;-78
2021/03/25 15:13:07;;;;;;;5.28;4.78;;;;;;;;;;5077504;28;20547;-80
2021/03/25 15:15:36;;;;;;;6.50;5.10;;;;;;;;;;5098922;28;20218;-78
2021/03/25 15:18:05;;;;;;;6.93;5.15;;;;;;;;;;5092927;28;20222;-79